createdAt,value
2023-03-22T00:00:00.749Z,100712.72
2023-03-22T00:02:30.698Z,100714.38
2023-03-22T00:04:58.988Z,100702.13
2023-03-22T00:07:28.025Z,100707.19
2023-03-22T00:09:56.201Z,100700.97
2023-03-22T00:12:24.450Z,100696.53
2023-03-22T00:14:53.640Z,100703.41
2023-03-22T00:17:23.068Z,100687.00
2023-03-22T00:19:54.500Z,100693.88
2023-03-22T00:22:23.001Z,100662.28
2023-03-22T00:24:51.253Z,100702.38
2023-03-22T00:27:19.471Z,100699.72
2023-03-22T00:29:47.761Z,100695.50
2023-03-22T00:32:17.551Z,100692.00
2023-03-22T00:34:45.832Z,100691.28
2023-03-22T00:37:16.416Z,100697.47
2023-03-22T00:39:45.445Z,100698.19
2023-03-22T00:42:13.685Z,100702.38
2023-03-22T00:44:41.933Z,100711.81
2023-03-22T00:47:10.167Z,100698.66
2023-03-22T00:49:38.668Z,100701.38
2023-03-22T00:52:07.059Z,100699.66
2023-03-22T00:54:36.726Z,100705.69
2023-03-22T00:57:05.169Z,100702.16
2023-03-22T00:59:38.675Z,100706.22
2023-03-22T01:02:07.450Z,100711.38
2023-03-22T01:04:35.745Z,100702.84
2023-03-22T01:07:05.750Z,100708.00
2023-03-22T01:09:33.949Z,100707.13
2023-03-22T01:12:03.518Z,100696.75
2023-03-22T01:14:32.541Z,100704.50
2023-03-22T01:17:00.751Z,100709.72
2023-03-22T01:19:29.028Z,100700.19
2023-03-22T01:21:58.197Z,100704.56
2023-03-22T01:24:26.620Z,100708.13
2023-03-22T01:26:54.925Z,100710.63
2023-03-22T01:29:24.978Z,100709.03
2023-03-22T01:31:53.657Z,100717.59
2023-03-22T01:34:22.348Z,100714.91
2023-03-22T01:36:51.360Z,100711.63
2023-03-22T01:39:20.535Z,100708.16
2023-03-22T01:41:51.743Z,100710.53
2023-03-22T01:44:22.707Z,100708.78
2023-03-22T01:46:54.411Z,100704.50
2023-03-22T01:49:25.053Z,100711.38
2023-03-22T01:51:56.343Z,100710.47
2023-03-22T01:54:51.634Z,100711.34
2023-03-22T01:57:45.434Z,100710.53
2023-03-22T02:00:22.502Z,100708.72
2023-03-22T02:03:12.850Z,100723.34
2023-03-22T02:05:45.961Z,100721.50
2023-03-22T02:08:15.107Z,100710.19
2023-03-22T02:10:56.629Z,100722.34
2023-03-22T02:13:42.438Z,100724.09
2023-03-22T02:16:46.315Z,100712.94
2023-03-22T02:20:10.207Z,100718.13
2023-03-22T02:22:50.180Z,100706.03
2023-03-22T02:25:56.666Z,100706.16
2023-03-22T02:28:34.269Z,100681.75
2023-03-22T02:31:21.442Z,100714.16
2023-03-22T02:34:06.971Z,100714.22
2023-03-22T02:37:05.010Z,100711.81
2023-03-22T02:39:39.225Z,100715.28
2023-03-22T02:42:31.901Z,100708.41
2023-03-22T02:45:06.883Z,100713.56
2023-03-22T02:47:41.356Z,100719.69
2023-03-22T02:50:15.509Z,100719.78
2023-03-22T02:52:47.789Z,100719.03
2023-03-22T02:55:22.280Z,100715.22
2023-03-22T02:57:57.363Z,100717.78
2023-03-22T03:00:27.280Z,100709.53
2023-03-22T03:03:00.114Z,100719.97
2023-03-22T03:05:33.074Z,100715.75
2023-03-22T03:08:03.385Z,100716.66
2023-03-22T03:10:35.717Z,100713.28
2023-03-22T03:13:04.015Z,100713.03
2023-03-22T03:15:32.281Z,100714.59
2023-03-22T03:18:14.415Z,100713.69
2023-03-22T03:20:55.531Z,100711.78
2023-03-22T03:23:31.620Z,100704.88
2023-03-22T03:26:07.438Z,100710.19
2023-03-22T03:28:40.314Z,100713.69
2023-03-22T03:31:21.816Z,100712.03
2023-03-22T03:33:59.073Z,100714.59
2023-03-22T03:36:29.311Z,100709.53
2023-03-22T03:38:58.793Z,100717.22
2023-03-22T03:41:31.266Z,100712.06
2023-03-22T03:44:00.602Z,100711.19
2023-03-22T03:46:29.593Z,100714.69
2023-03-22T03:48:59.315Z,100716.47
2023-03-22T03:51:28.985Z,100718.88
2023-03-22T03:53:57.341Z,100712.72
2023-03-22T03:56:26.185Z,100713.44
2023-03-22T03:58:58.337Z,100721.19
2023-03-22T04:01:28.562Z,100729.63
2023-03-22T04:04:10.258Z,100732.13
2023-03-22T04:07:03.209Z,100719.22
2023-03-22T04:09:34.144Z,100722.63
2023-03-22T04:12:11.618Z,100726.13
2023-03-22T04:14:41.794Z,100727.97
2023-03-22T04:17:19.760Z,100732.41
2023-03-22T04:19:48.440Z,100731.50
2023-03-22T04:22:18.557Z,100726.34
2023-03-22T04:24:50.556Z,100731.56
2023-03-22T04:27:23.132Z,100721.28
2023-03-22T04:30:01.121Z,100726.56
2023-03-22T04:32:57.511Z,100724.00
2023-03-22T04:35:39.631Z,100724.00
2023-03-22T04:38:09.841Z,100722.38
2023-03-22T04:40:39.145Z,100725.78
2023-03-22T04:43:13.850Z,100725.84
2023-03-22T04:45:54.927Z,100728.44
2023-03-22T04:48:28.390Z,100725.00
2023-03-22T04:51:04.454Z,100722.50
2023-03-22T04:53:40.504Z,100719.78
2023-03-22T04:56:13.017Z,100725.22
2023-03-22T04:58:44.703Z,100728.03
2023-03-22T05:01:18.097Z,100718.63
2023-03-22T05:03:49.139Z,100725.53
2023-03-22T05:06:23.089Z,100723.00
2023-03-22T05:09:02.140Z,100720.44
2023-03-22T05:11:30.545Z,100725.66
2023-03-22T05:14:17.227Z,100727.19
2023-03-22T05:16:46.986Z,100730.63
2023-03-22T05:19:15.381Z,100725.34
2023-03-22T05:21:48.283Z,100723.69
2023-03-22T05:24:16.611Z,100722.16
2023-03-22T05:26:53.838Z,100722.97
2023-03-22T05:29:25.052Z,100735.97
2023-03-22T05:32:04.693Z,100733.28
2023-03-22T05:34:36.144Z,100728.13
2023-03-22T05:37:16.924Z,100732.59
2023-03-22T05:39:54.990Z,100733.47
2023-03-22T05:42:28.955Z,100724.72
2023-03-22T05:44:57.939Z,100718.84
2023-03-22T05:47:27.660Z,100712.16
2023-03-22T05:50:01.493Z,100718.44
2023-03-22T05:52:31.503Z,100717.81
2023-03-22T05:55:23.257Z,100705.63
2023-03-22T05:57:56.689Z,100718.06
2023-03-22T06:00:27.291Z,100721.50
2023-03-22T06:03:20.299Z,100714.81
2023-03-22T06:05:56.126Z,100709.53
2023-03-22T06:08:36.530Z,100717.59
2023-03-22T06:11:05.224Z,100715.00
2023-03-22T06:13:33.508Z,100715.91
2023-03-22T06:16:02.899Z,100701.34
2023-03-22T06:18:34.117Z,100702.13
2023-03-22T06:21:10.228Z,100716.09
2023-03-22T06:23:39.185Z,100713.75
2023-03-22T06:26:11.388Z,100709.59
2023-03-22T06:28:41.066Z,100707.00
2023-03-22T06:31:11.486Z,100707.22
2023-03-22T06:34:07.956Z,100699.59
2023-03-22T06:36:42.511Z,100697.81
2023-03-22T06:39:18.302Z,100710.78
2023-03-22T06:41:47.699Z,100710.91
2023-03-22T06:44:16.524Z,100699.00
2023-03-22T06:46:53.587Z,100693.34
2023-03-22T06:49:49.880Z,100699.19
2023-03-22T06:52:24.494Z,100691.50
2023-03-22T06:54:53.445Z,100702.06
2023-03-22T06:57:21.662Z,100687.47
2023-03-22T06:59:49.944Z,100692.75
2023-03-22T07:02:18.390Z,100693.16
2023-03-22T07:05:09.065Z,100696.16
2023-03-22T07:07:37.675Z,100695.97
2023-03-22T07:10:07.836Z,100693.16
2023-03-22T07:12:36.965Z,100698.53
2023-03-22T07:15:11.961Z,100694.34
2023-03-22T07:17:55.252Z,100697.34
2023-03-22T07:20:25.229Z,100701.66
2023-03-22T07:22:53.440Z,100699.84
2023-03-22T07:25:24.215Z,100694.00
2023-03-22T07:28:01.341Z,100699.03
2023-03-22T07:30:30.701Z,100694.66
2023-03-22T07:32:58.953Z,100686.03
2023-03-22T07:35:29.134Z,100686.94
2023-03-22T07:37:57.789Z,100683.78
2023-03-22T07:40:31.445Z,100684.06
2023-03-22T07:43:00.553Z,100673.16
2023-03-22T07:46:04.327Z,100677.13
2023-03-22T07:48:32.786Z,100683.25
2023-03-22T07:51:31.681Z,100685.31
2023-03-22T07:54:00.119Z,100680.94
2023-03-22T07:56:28.494Z,100678.56
2023-03-22T07:58:56.865Z,100674.31
2023-03-22T08:01:25.818Z,100667.66
2023-03-22T08:04:06.275Z,100666.00
2023-03-22T08:07:00.090Z,100662.59
2023-03-22T08:09:29.666Z,100663.44
2023-03-22T08:11:58.761Z,100651.09
2023-03-22T08:14:35.856Z,100659.69
2023-03-22T08:17:07.088Z,100649.97
2023-03-22T08:19:36.404Z,100659.56
2023-03-22T08:22:29.806Z,100657.94
2023-03-22T08:25:19.253Z,100656.19
2023-03-22T08:27:48.396Z,100650.25
2023-03-22T08:30:17.060Z,100642.56
2023-03-22T08:32:45.492Z,100645.13
2023-03-22T08:35:13.944Z,100646.28
2023-03-22T08:37:44.469Z,100649.50
2023-03-22T08:40:13.646Z,100652.13
2023-03-22T08:42:46.422Z,100655.56
2023-03-22T08:45:15.172Z,100658.09
2023-03-22T08:47:49.819Z,100653.75
2023-03-22T08:50:23.407Z,100642.69
2023-03-22T08:53:01.865Z,100649.09
2023-03-22T08:55:36.156Z,100638.69
2023-03-22T08:58:11.350Z,100633.59
2023-03-22T09:00:51.829Z,100632.53
2023-03-22T09:03:37.469Z,100641.81
2023-03-22T09:06:06.777Z,100642.59
2023-03-22T09:08:41.357Z,100645.22
2023-03-22T09:11:16.082Z,100636.88
2023-03-22T09:13:46.840Z,100637.66
2023-03-22T09:16:16.616Z,100643.72
2023-03-22T09:18:46.547Z,100648.81
2023-03-22T09:21:22.045Z,100634.81
2023-03-22T09:24:12.119Z,100635.41
2023-03-22T09:26:45.562Z,100635.41
2023-03-22T09:29:16.242Z,100630.22
2023-03-22T09:31:48.841Z,100626.88
2023-03-22T09:34:24.408Z,100628.69
2023-03-22T09:36:53.483Z,100628.72
2023-03-22T09:39:28.813Z,100630.59
2023-03-22T09:42:03.638Z,100629.88
2023-03-22T09:44:35.916Z,100624.81
2023-03-22T09:47:09.192Z,100617.91
2023-03-22T09:49:53.039Z,100613.63
2023-03-22T09:52:22.694Z,100614.34
2023-03-22T09:54:53.397Z,100623.81
2023-03-22T09:57:30.531Z,100613.56
2023-03-22T10:00:11.693Z,100611.94
2023-03-22T10:02:54.524Z,100614.63
2023-03-22T10:05:30.586Z,100607.84
2023-03-22T10:08:13.518Z,100616.44
2023-03-22T10:10:43.615Z,100605.22
2023-03-22T10:13:20.339Z,100614.00
2023-03-22T10:15:52.723Z,100602.72
2023-03-22T10:18:24.559Z,100609.03
2023-03-22T10:20:59.939Z,100597.75
2023-03-22T10:23:33.078Z,100601.41
2023-03-22T10:26:04.541Z,100569.00
2023-03-22T10:28:38.852Z,100597.94
2023-03-22T10:31:14.056Z,100588.50
2023-03-22T10:33:54.367Z,100584.19
2023-03-22T10:36:25.501Z,100591.09
2023-03-22T10:38:57.328Z,100577.38
2023-03-22T10:41:28.963Z,100573.25
2023-03-22T10:44:00.572Z,100567.34
2023-03-22T10:46:34.922Z,100577.78
2023-03-22T10:49:04.992Z,100565.81
2023-03-22T10:51:40.380Z,100566.75
2023-03-22T10:54:14.466Z,100562.34
2023-03-22T10:56:45.090Z,100550.34
2023-03-22T10:59:48.465Z,100524.25
2023-03-22T11:02:21.937Z,100541.03
2023-03-22T11:04:52.616Z,100536.97
2023-03-22T11:07:36.114Z,100536.28
2023-03-22T11:10:22.982Z,100531.81
2023-03-22T11:12:56.452Z,100531.81
2023-03-22T11:15:29.975Z,100521.53
2023-03-22T11:18:05.826Z,100523.44
2023-03-22T11:20:35.100Z,100521.00
2023-03-22T11:23:06.956Z,100504.53
2023-03-22T11:25:37.572Z,100515.03
2023-03-22T11:28:18.865Z,100504.56
2023-03-22T11:31:00.636Z,100495.91
2023-03-22T11:33:29.622Z,100492.66
2023-03-22T11:35:59.447Z,100496.25
2023-03-22T11:38:30.902Z,100485.06
2023-03-22T11:41:03.120Z,100469.47
2023-03-22T11:43:37.108Z,100482.59
2023-03-22T11:46:06.547Z,100475.69
2023-03-22T11:48:36.857Z,100481.81
2023-03-22T11:51:09.319Z,100473.13
2023-03-22T11:53:41.163Z,100465.25
2023-03-22T11:56:12.753Z,100469.75
2023-03-22T11:58:59.646Z,100464.63
2023-03-22T12:01:36.751Z,100465.50
2023-03-22T12:04:09.994Z,100470.69
2023-03-22T12:06:41.294Z,100460.31
2023-03-22T12:09:20.909Z,100454.34
2023-03-22T12:11:51.372Z,100451.78
2023-03-22T12:14:26.179Z,100437.97
2023-03-22T12:16:59.504Z,100438.91
2023-03-22T12:19:49.849Z,100430.28
2023-03-22T12:22:21.957Z,100436.41
2023-03-22T12:24:50.367Z,100424.38
2023-03-22T12:27:23.162Z,100421.81
2023-03-22T12:29:57.867Z,100417.47
2023-03-22T12:32:29.734Z,100429.59
2023-03-22T12:35:14.104Z,100416.63
2023-03-22T12:37:49.244Z,100416.69
2023-03-22T12:40:23.201Z,100405.50
2023-03-22T12:43:00.810Z,100393.44
2023-03-22T12:45:37.526Z,100396.81
2023-03-22T12:48:11.793Z,100389.13
2023-03-22T12:50:44.670Z,100386.59
2023-03-22T12:53:16.324Z,100372.75
2023-03-22T12:55:47.108Z,100369.34
2023-03-22T12:58:20.912Z,100355.50
2023-03-22T13:00:53.791Z,100353.81
2023-03-22T13:03:29.025Z,100345.19
2023-03-22T13:06:04.632Z,100334.00
2023-03-22T13:09:18.532Z,100314.09
2023-03-22T13:11:48.816Z,100325.41
2023-03-22T13:14:50.420Z,100320.19
2023-03-22T13:20:30.935Z,100311.63
2023-03-22T13:23:27.578Z,100310.72
2023-03-22T13:26:06.124Z,100302.84
2023-03-22T13:28:38.180Z,100301.22
2023-03-22T13:31:07.716Z,100292.56
2023-03-22T13:33:38.788Z,100284.72
2023-03-22T13:36:25.069Z,100265.72
2023-03-22T13:38:59.004Z,100272.66
2023-03-22T13:41:29.832Z,100272.69
2023-03-22T13:44:00.526Z,100272.69
2023-03-22T13:46:50.216Z,100264.91
2023-03-22T13:49:37.136Z,100258.84
2023-03-22T13:52:09.408Z,100263.22
2023-03-22T13:54:43.676Z,100252.81
2023-03-22T13:57:38.772Z,100240.69
2023-03-22T14:00:20.698Z,100235.47
2023-03-22T14:02:50.974Z,100233.75
2023-03-22T14:05:23.019Z,100234.56
2023-03-22T14:07:56.315Z,100221.56
2023-03-22T14:10:28.266Z,100221.53
2023-03-22T14:13:01.004Z,100221.50
2023-03-22T14:15:32.586Z,100214.53
2023-03-22T14:18:04.065Z,100197.22
2023-03-22T14:20:36.646Z,100196.31
